Brocket, Canada
Current Conditions -  °F | °C
As of 11:00 PM on Sunday 23 Nov 2014 (Local Time) from CZPC Reporting Station
Overcast Overcast  
Wind Chill: 25°   Ceiling: 18000
Heat Index: 36°   Visibility: 9mi
Dew Point: 19°   Wind: 18mph
Humidity: 52%   Direction: 270°W
Pressure: 29.83"   Gusts: 25mph
Location:  49.55°N, 113.75°W
Report Text: CZPC 240600Z AUTO 27016G22KT 9SM SCT160 OVC180 02/M07 A2983 RMK PRESRR SLP133
Loading
Personal Weather Stations






























Interactive Weather Map New forecast layout! Learn more

10-Day Weather Forecast

Advertisements
Track Severe Weather on mobile